sensor_id;sensor_type;location;lat;lon;timestamp;P1;durP1;ratioP1;P2;durP2;ratioP2
61356;SDS011;47227;46.752;23.576;2023-03-14T00:01:17;23.20;;;13.70;;
61356;SDS011;47227;46.752;23.576;2023-03-14T00:03:47;26.10;;;15.10;;
61356;SDS011;47227;46.752;23.576;2023-03-14T00:06:16;24.50;;;12.60;;
61356;SDS011;47227;46.752;23.576;2023-03-14T00:08:46;31.80;;;13.50;;
61356;SDS011;47227;46.752;23.576;2023-03-14T00:11:16;30.90;;;15.00;;
61356;SDS011;47227;46.752;23.576;2023-03-14T00:13:47;29.30;;;15.10;;
61356;SDS011;47227;46.752;23.576;2023-03-14T00:16:16;25.00;;;13.50;;
61356;SDS011;47227;46.752;23.576;2023-03-14T00:18:45;24.40;;;12.50;;
61356;SDS011;47227;46.752;23.576;2023-03-14T00:21:13;25.60;;;13.30;;
61356;SDS011;47227;46.752;23.576;2023-03-14T00:23:41;27.60;;;14.40;;
61356;SDS011;47227;46.752;23.576;2023-03-14T00:26:11;29.60;;;15.50;;
61356;SDS011;47227;46.752;23.576;2023-03-14T00:28:41;27.20;;;16.90;;
61356;SDS011;47227;46.752;23.576;2023-03-14T00:31:12;26.90;;;14.70;;
61356;SDS011;47227;46.752;23.576;2023-03-14T00:33:41;24.80;;;14.70;;
61356;SDS011;47227;46.752;23.576;2023-03-14T00:36:12;31.40;;;17.50;;
61356;SDS011;47227;46.752;23.576;2023-03-14T00:38:42;37.50;;;21.90;;
61356;SDS011;47227;46.752;23.576;2023-03-14T00:41:13;35.10;;;18.30;;
61356;SDS011;47227;46.752;23.576;2023-03-14T00:43:43;30.30;;;16.90;;
61356;SDS011;47227;46.752;23.576;2023-03-14T00:46:11;39.60;;;19.00;;
61356;SDS011;47227;46.752;23.576;2023-03-14T00:48:40;33.90;;;18.60;;
61356;SDS011;47227;46.752;23.576;2023-03-14T00:51:08;35.90;;;19.80;;
61356;SDS011;47227;46.752;23.576;2023-03-14T00:53:37;38.80;;;19.20;;
61356;SDS011;47227;46.752;23.576;2023-03-14T00:56:07;30.60;;;18.50;;
61356;SDS011;47227;46.752;23.576;2023-03-14T00:58:37;32.00;;;17.30;;
61356;SDS011;47227;46.752;23.576;2023-03-14T01:01:06;31.30;;;16.70;;
61356;SDS011;47227;46.752;23.576;2023-03-14T01:03:36;35.50;;;16.40;;
61356;SDS011;47227;46.752;23.576;2023-03-14T01:06:07;34.80;;;17.90;;
61356;SDS011;47227;46.752;23.576;2023-03-14T01:08:43;33.10;;;17.80;;
61356;SDS011;47227;46.752;23.576;2023-03-14T01:11:13;30.70;;;15.80;;
61356;SDS011;47227;46.752;23.576;2023-03-14T01:13:43;33.00;;;16.70;;
61356;SDS011;47227;46.752;23.576;2023-03-14T01:16:11;29.40;;;16.40;;
61356;SDS011;47227;46.752;23.576;2023-03-14T01:18:41;30.60;;;15.50;;
61356;SDS011;47227;46.752;23.576;2023-03-14T01:21:13;35.30;;;16.60;;
61356;SDS011;47227;46.752;23.576;2023-03-14T01:23:44;31.80;;;16.60;;
61356;SDS011;47227;46.752;23.576;2023-03-14T01:26:14;35.60;;;17.20;;
61356;SDS011;47227;46.752;23.576;2023-03-14T01:28:44;27.30;;;16.50;;
61356;SDS011;47227;46.752;23.576;2023-03-14T01:31:13;21.00;;;12.70;;
61356;SDS011;47227;46.752;23.576;2023-03-14T01:33:41;25.30;;;13.90;;
61356;SDS011;47227;46.752;23.576;2023-03-14T01:36:10;28.10;;;14.80;;
61356;SDS011;47227;46.752;23.576;2023-03-14T01:38:39;24.50;;;13.80;;
61356;SDS011;47227;46.752;23.576;2023-03-14T01:41:12;27.80;;;14.40;;
61356;SDS011;47227;46.752;23.576;2023-03-14T01:43:42;30.60;;;15.10;;
61356;SDS011;47227;46.752;23.576;2023-03-14T01:46:17;26.60;;;14.10;;
61356;SDS011;47227;46.752;23.576;2023-03-14T01:48:52;26.90;;;14.40;;
61356;SDS011;47227;46.752;23.576;2023-03-14T01:51:47;29.60;;;14.60;;
61356;SDS011;47227;46.752;23.576;2023-03-14T01:54:34;21.90;;;14.00;;
61356;SDS011;47227;46.752;23.576;2023-03-14T01:57:24;24.20;;;13.80;;
61356;SDS011;47227;46.752;23.576;2023-03-14T02:00:01;23.30;;;14.20;;
61356;SDS011;47227;46.752;23.576;2023-03-14T02:02:40;24.10;;;14.50;;
61356;SDS011;47227;46.752;23.576;2023-03-14T02:05:14;29.60;;;14.80;;
61356;SDS011;47227;46.752;23.576;2023-03-14T02:07:51;32.60;;;15.10;;
61356;SDS011;47227;46.752;23.576;2023-03-14T02:12:59;32.60;;;15.30;;
61356;SDS011;47227;46.752;23.576;2023-03-14T02:15:40;32.10;;;14.90;;
61356;SDS011;47227;46.752;23.576;2023-03-14T02:18:17;29.50;;;14.30;;
61356;SDS011;47227;46.752;23.576;2023-03-14T02:21:04;28.70;;;14.10;;
61356;SDS011;47227;46.752;23.576;2023-03-14T02:23:45;28.80;;;13.10;;
61356;SDS011;47227;46.752;23.576;2023-03-14T02:26:23;24.90;;;12.60;;
61356;SDS011;47227;46.752;23.576;2023-03-14T02:28:58;23.60;;;11.20;;
61356;SDS011;47227;46.752;23.576;2023-03-14T02:31:26;24.40;;;11.40;;
61356;SDS011;47227;46.752;23.576;2023-03-14T02:33:54;28.20;;;11.00;;
61356;SDS011;47227;46.752;23.576;2023-03-14T02:36:23;21.90;;;11.10;;
61356;SDS011;47227;46.752;23.576;2023-03-14T02:38:55;22.00;;;12.80;;
61356;SDS011;47227;46.752;23.576;2023-03-14T02:41:33;24.60;;;12.50;;
61356;SDS011;47227;46.752;23.576;2023-03-14T02:44:04;25.40;;;12.80;;
61356;SDS011;47227;46.752;23.576;2023-03-14T02:46:32;21.50;;;12.80;;
61356;SDS011;47227;46.752;23.576;2023-03-14T02:49:02;21.90;;;12.20;;
61356;SDS011;47227;46.752;23.576;2023-03-14T02:51:35;21.60;;;11.80;;
61356;SDS011;47227;46.752;23.576;2023-03-14T02:54:03;22.70;;;12.10;;
61356;SDS011;47227;46.752;23.576;2023-03-14T02:56:31;23.00;;;12.50;;
61356;SDS011;47227;46.752;23.576;2023-03-14T02:59:02;29.90;;;15.20;;
61356;SDS011;47227;46.752;23.576;2023-03-14T03:01:37;24.40;;;13.20;;
61356;SDS011;47227;46.752;23.576;2023-03-14T03:04:05;20.40;;;12.30;;
61356;SDS011;47227;46.752;23.576;2023-03-14T03:06:33;18.60;;;11.30;;
61356;SDS011;47227;46.752;23.576;2023-03-14T03:09:01;18.90;;;10.80;;
61356;SDS011;47227;46.752;23.576;2023-03-14T03:11:29;24.20;;;11.80;;
61356;SDS011;47227;46.752;23.576;2023-03-14T03:13:59;23.30;;;11.60;;
61356;SDS011;47227;46.752;23.576;2023-03-14T03:16:28;20.10;;;10.90;;
61356;SDS011;47227;46.752;23.576;2023-03-14T03:18:56;19.10;;;10.30;;
61356;SDS011;47227;46.752;23.576;2023-03-14T03:21:23;22.10;;;11.20;;
61356;SDS011;47227;46.752;23.576;2023-03-14T03:23:51;19.20;;;11.00;;
61356;SDS011;47227;46.752;23.576;2023-03-14T03:26:19;19.40;;;10.40;;
61356;SDS011;47227;46.752;23.576;2023-03-14T03:28:49;17.20;;;10.70;;
61356;SDS011;47227;46.752;23.576;2023-03-14T03:31:19;18.90;;;10.30;;
61356;SDS011;47227;46.752;23.576;2023-03-14T03:33:47;17.90;;;10.70;;
61356;SDS011;47227;46.752;23.576;2023-03-14T03:36:15;19.90;;;10.70;;
61356;SDS011;47227;46.752;23.576;2023-03-14T03:38:49;24.80;;;12.30;;
61356;SDS011;47227;46.752;23.576;2023-03-14T03:41:17;20.90;;;10.90;;
61356;SDS011;47227;46.752;23.576;2023-03-14T03:43:46;21.60;;;11.20;;
61356;SDS011;47227;46.752;23.576;2023-03-14T03:46:15;21.70;;;11.10;;
61356;SDS011;47227;46.752;23.576;2023-03-14T03:48:47;25.00;;;11.40;;
61356;SDS011;47227;46.752;23.576;2023-03-14T03:51:15;23.20;;;11.20;;
61356;SDS011;47227;46.752;23.576;2023-03-14T03:53:44;18.60;;;11.00;;
61356;SDS011;47227;46.752;23.576;2023-03-14T03:56:13;21.40;;;11.40;;
61356;SDS011;47227;46.752;23.576;2023-03-14T03:58:41;21.30;;;11.30;;
61356;SDS011;47227;46.752;23.576;2023-03-14T04:01:09;23.70;;;11.90;;
61356;SDS011;47227;46.752;23.576;2023-03-14T04:03:39;21.90;;;11.20;;
61356;SDS011;47227;46.752;23.576;2023-03-14T04:06:09;22.60;;;11.20;;
61356;SDS011;47227;46.752;23.576;2023-03-14T04:08:41;23.90;;;11.90;;
61356;SDS011;47227;46.752;23.576;2023-03-14T04:11:12;22.00;;;11.90;;
61356;SDS011;47227;46.752;23.576;2023-03-14T04:15:24;19.00;;;11.40;;
61356;SDS011;47227;46.752;23.576;2023-03-14T04:19:04;20.50;;;11.30;;
61356;SDS011;47227;46.752;23.576;2023-03-14T04:22:56;21.40;;;10.30;;
61356;SDS011;47227;46.752;23.576;2023-03-14T04:26:17;26.10;;;11.00;;
61356;SDS011;47227;46.752;23.576;2023-03-14T04:30:17;17.40;;;11.20;;
61356;SDS011;47227;46.752;23.576;2023-03-14T04:33:30;20.80;;;10.60;;
61356;SDS011;47227;46.752;23.576;2023-03-14T04:37:13;28.20;;;15.90;;
61356;SDS011;47227;46.752;23.576;2023-03-14T04:40:28;22.00;;;12.00;;
61356;SDS011;47227;46.752;23.576;2023-03-14T04:44:38;25.40;;;12.40;;
61356;SDS011;47227;46.752;23.576;2023-03-14T04:48:29;19.80;;;10.70;;
61356;SDS011;47227;46.752;23.576;2023-03-14T04:51:36;25.60;;;11.90;;
61356;SDS011;47227;46.752;23.576;2023-03-14T04:55:09;25.30;;;11.50;;
61356;SDS011;47227;46.752;23.576;2023-03-14T04:59:23;25.40;;;11.30;;
61356;SDS011;47227;46.752;23.576;2023-03-14T05:02:55;27.30;;;12.10;;
61356;SDS011;47227;46.752;23.576;2023-03-14T05:06:56;32.30;;;13.10;;
61356;SDS011;47227;46.752;23.576;2023-03-14T05:10:41;24.30;;;12.00;;
61356;SDS011;47227;46.752;23.576;2023-03-14T05:14:08;28.20;;;13.70;;
61356;SDS011;47227;46.752;23.576;2023-03-14T05:17:43;25.20;;;12.30;;
61356;SDS011;47227;46.752;23.576;2023-03-14T05:22:08;29.30;;;12.80;;
61356;SDS011;47227;46.752;23.576;2023-03-14T05:25:36;48.80;;;21.40;;
61356;SDS011;47227;46.752;23.576;2023-03-14T05:29:31;39.00;;;17.00;;
61356;SDS011;47227;46.752;23.576;2023-03-14T05:33:04;31.30;;;15.00;;
61356;SDS011;47227;46.752;23.576;2023-03-14T05:36:34;39.90;;;15.80;;
61356;SDS011;47227;46.752;23.576;2023-03-14T05:40:04;32.10;;;13.80;;
61356;SDS011;47227;46.752;23.576;2023-03-14T05:43:55;27.70;;;13.00;;
61356;SDS011;47227;46.752;23.576;2023-03-14T05:48:13;47.20;;;16.10;;
61356;SDS011;47227;46.752;23.576;2023-03-14T05:52:07;40.60;;;16.60;;
61356;SDS011;47227;46.752;23.576;2023-03-14T05:55:40;31.00;;;15.60;;
61356;SDS011;47227;46.752;23.576;2023-03-14T05:59:20;31.60;;;15.20;;
61356;SDS011;47227;46.752;23.576;2023-03-14T06:02:49;34.40;;;14.80;;
61356;SDS011;47227;46.752;23.576;2023-03-14T06:06:36;39.50;;;15.40;;
61356;SDS011;47227;46.752;23.576;2023-03-14T06:10:34;31.30;;;15.90;;
61356;SDS011;47227;46.752;23.576;2023-03-14T06:14:24;34.00;;;15.40;;
61356;SDS011;47227;46.752;23.576;2023-03-14T06:16:56;38.20;;;15.40;;
61356;SDS011;47227;46.752;23.576;2023-03-14T06:19:27;25.00;;;13.60;;
61356;SDS011;47227;46.752;23.576;2023-03-14T06:21:55;36.10;;;16.10;;
61356;SDS011;47227;46.752;23.576;2023-03-14T06:24:27;33.60;;;15.50;;
61356;SDS011;47227;46.752;23.576;2023-03-14T06:26:55;27.50;;;14.50;;
61356;SDS011;47227;46.752;23.576;2023-03-14T06:29:23;29.00;;;13.10;;
61356;SDS011;47227;46.752;23.576;2023-03-14T06:31:51;33.50;;;14.30;;
61356;SDS011;47227;46.752;23.576;2023-03-14T06:34:19;40.90;;;15.40;;
61356;SDS011;47227;46.752;23.576;2023-03-14T06:36:49;37.80;;;15.30;;
61356;SDS011;47227;46.752;23.576;2023-03-14T06:39:19;27.40;;;13.30;;
61356;SDS011;47227;46.752;23.576;2023-03-14T06:41:50;25.50;;;13.10;;
61356;SDS011;47227;46.752;23.576;2023-03-14T06:44:18;33.90;;;15.00;;
61356;SDS011;47227;46.752;23.576;2023-03-14T06:46:47;31.10;;;14.90;;
61356;SDS011;47227;46.752;23.576;2023-03-14T06:49:15;36.10;;;14.20;;
61356;SDS011;47227;46.752;23.576;2023-03-14T06:53:11;19.20;;;11.80;;
61356;SDS011;47227;46.752;23.576;2023-03-14T06:56:52;27.90;;;12.30;;
61356;SDS011;47227;46.752;23.576;2023-03-14T07:00:38;28.50;;;12.80;;
61356;SDS011;47227;46.752;23.576;2023-03-14T07:04:15;38.00;;;11.30;;
61356;SDS011;47227;46.752;23.576;2023-03-14T07:07:39;20.90;;;11.80;;
61356;SDS011;47227;46.752;23.576;2023-03-14T07:11:16;44.70;;;12.20;;
61356;SDS011;47227;46.752;23.576;2023-03-14T07:14:28;26.60;;;11.80;;
61356;SDS011;47227;46.752;23.576;2023-03-14T07:18:05;23.90;;;12.10;;
61356;SDS011;47227;46.752;23.576;2023-03-14T07:21:57;25.30;;;12.10;;
61356;SDS011;47227;46.752;23.576;2023-03-14T07:28:59;22.70;;;11.90;;
61356;SDS011;47227;46.752;23.576;2023-03-14T07:32:26;20.30;;;10.40;;
61356;SDS011;47227;46.752;23.576;2023-03-14T07:36:26;20.80;;;10.90;;
61356;SDS011;47227;46.752;23.576;2023-03-14T07:50:33;19.70;;;10.20;;
61356;SDS011;47227;46.752;23.576;2023-03-14T07:54:16;19.00;;;10.40;;
61356;SDS011;47227;46.752;23.576;2023-03-14T07:57:52;21.40;;;9.20;;
61356;SDS011;47227;46.752;23.576;2023-03-14T08:05:04;20.60;;;9.00;;
61356;SDS011;47227;46.752;23.576;2023-03-14T08:08:31;18.90;;;8.90;;
61356;SDS011;47227;46.752;23.576;2023-03-14T08:11:42;15.00;;;7.40;;
61356;SDS011;47227;46.752;23.576;2023-03-14T08:15:32;19.60;;;7.90;;
61356;SDS011;47227;46.752;23.576;2023-03-14T08:19:14;23.10;;;7.40;;
61356;SDS011;47227;46.752;23.576;2023-03-14T08:22:13;18.80;;;7.30;;
61356;SDS011;47227;46.752;23.576;2023-03-14T08:25:56;13.80;;;7.30;;
61356;SDS011;47227;46.752;23.576;2023-03-14T08:29:42;25.30;;;8.10;;
61356;SDS011;47227;46.752;23.576;2023-03-14T08:33:24;12.60;;;6.20;;
61356;SDS011;47227;46.752;23.576;2023-03-14T08:40:44;15.20;;;5.90;;
61356;SDS011;47227;46.752;23.576;2023-03-14T08:44:25;11.40;;;5.80;;
61356;SDS011;47227;46.752;23.576;2023-03-14T08:47:59;9.00;;;5.50;;
61356;SDS011;47227;46.752;23.576;2023-03-14T08:51:16;16.30;;;6.20;;
61356;SDS011;47227;46.752;23.576;2023-03-14T08:54:56;14.50;;;6.50;;
61356;SDS011;47227;46.752;23.576;2023-03-14T08:58:40;10.10;;;5.50;;
61356;SDS011;47227;46.752;23.576;2023-03-14T09:02:17;11.80;;;5.00;;
61356;SDS011;47227;46.752;23.576;2023-03-14T09:05:51;12.70;;;5.40;;
61356;SDS011;47227;46.752;23.576;2023-03-14T09:09:43;15.40;;;6.00;;
61356;SDS011;47227;46.752;23.576;2023-03-14T09:16:58;13.70;;;6.10;;
61356;SDS011;47227;46.752;23.576;2023-03-14T09:21:04;20.30;;;6.50;;
61356;SDS011;47227;46.752;23.576;2023-03-14T09:25:03;17.30;;;6.30;;
61356;SDS011;47227;46.752;23.576;2023-03-14T09:28:48;10.40;;;5.90;;
61356;SDS011;47227;46.752;23.576;2023-03-14T09:36:20;9.10;;;6.40;;
61356;SDS011;47227;46.752;23.576;2023-03-14T09:40:22;20.70;;;6.60;;
61356;SDS011;47227;46.752;23.576;2023-03-14T09:43:37;12.80;;;5.70;;
61356;SDS011;47227;46.752;23.576;2023-03-14T09:47:19;10.50;;;6.70;;
61356;SDS011;47227;46.752;23.576;2023-03-14T09:49:52;8.20;;;6.10;;
61356;SDS011;47227;46.752;23.576;2023-03-14T09:54:03;17.50;;;7.10;;
61356;SDS011;47227;46.752;23.576;2023-03-14T09:57:56;11.10;;;5.00;;
61356;SDS011;47227;46.752;23.576;2023-03-14T10:05:27;10.70;;;5.00;;
61356;SDS011;47227;46.752;23.576;2023-03-14T10:09:15;18.20;;;5.90;;
61356;SDS011;47227;46.752;23.576;2023-03-14T10:16:28;9.20;;;5.10;;
61356;SDS011;47227;46.752;23.576;2023-03-14T10:20:05;14.20;;;5.60;;
61356;SDS011;47227;46.752;23.576;2023-03-14T10:27:21;15.00;;;5.90;;
61356;SDS011;47227;46.752;23.576;2023-03-14T10:31:06;13.70;;;5.70;;
61356;SDS011;47227;46.752;23.576;2023-03-14T10:35:17;12.70;;;5.00;;
61356;SDS011;47227;46.752;23.576;2023-03-14T10:38:58;19.80;;;5.50;;
61356;SDS011;47227;46.752;23.576;2023-03-14T10:42:27;7.80;;;4.20;;
61356;SDS011;47227;46.752;23.576;2023-03-14T10:58:24;6.00;;;3.70;;
61356;SDS011;47227;46.752;23.576;2023-03-14T11:09:23;9.60;;;4.80;;
61356;SDS011;47227;46.752;23.576;2023-03-14T11:16:14;9.90;;;3.60;;
61356;SDS011;47227;46.752;23.576;2023-03-14T11:23:04;2.80;;;1.80;;
61356;SDS011;47227;46.752;23.576;2023-03-14T11:26:55;2.60;;;1.80;;
61356;SDS011;47227;46.752;23.576;2023-03-14T12:00:32;7.30;;;2.40;;
61356;SDS011;47227;46.752;23.576;2023-03-14T12:04:36;4.70;;;2.50;;
61356;SDS011;47227;46.752;23.576;2023-03-14T12:11:40;9.10;;;2.40;;
61356;SDS011;47227;46.752;23.576;2023-03-14T12:14:54;9.90;;;2.40;;
61356;SDS011;47227;46.752;23.576;2023-03-14T12:23:04;3.50;;;2.10;;
61356;SDS011;47227;46.752;23.576;2023-03-14T12:29:28;2.70;;;2.10;;
61356;SDS011;47227;46.752;23.576;2023-03-14T12:36:44;3.80;;;2.10;;
61356;SDS011;47227;46.752;23.576;2023-03-14T12:40:29;2.50;;;1.90;;
61356;SDS011;47227;46.752;23.576;2023-03-14T12:47:41;2.00;;;1.20;;
61356;SDS011;47227;46.752;23.576;2023-03-14T12:51:11;3.50;;;1.30;;
61356;SDS011;47227;46.752;23.576;2023-03-14T12:54:16;1.20;;;1.00;;
61356;SDS011;47227;46.752;23.576;2023-03-14T12:58:03;4.20;;;1.50;;
61356;SDS011;47227;46.752;23.576;2023-03-14T13:02:01;1.90;;;1.50;;
61356;SDS011;47227;46.752;23.576;2023-03-14T13:05:09;3.30;;;1.00;;
61356;SDS011;47227;46.752;23.576;2023-03-14T13:13:01;1.20;;;1.10;;
61356;SDS011;47227;46.752;23.576;2023-03-14T13:17:12;1.70;;;1.60;;
61356;SDS011;47227;46.752;23.576;2023-03-14T13:21:02;2.20;;;1.30;;
61356;SDS011;47227;46.752;23.576;2023-03-14T13:24:32;2.70;;;1.60;;
61356;SDS011;47227;46.752;23.576;2023-03-14T13:27:32;2.60;;;1.50;;
61356;SDS011;47227;46.752;23.576;2023-03-14T13:33:33;2.20;;;1.60;;
61356;SDS011;47227;46.752;23.576;2023-03-14T13:36:03;1.80;;;1.40;;
61356;SDS011;47227;46.752;23.576;2023-03-14T13:38:38;2.80;;;1.90;;
61356;SDS011;47227;46.752;23.576;2023-03-14T13:41:07;1.70;;;1.60;;
61356;SDS011;47227;46.752;23.576;2023-03-14T13:43:36;2.70;;;1.60;;
61356;SDS011;47227;46.752;23.576;2023-03-14T13:46:12;1.40;;;1.30;;
61356;SDS011;47227;46.752;23.576;2023-03-14T13:49:19;1.70;;;1.50;;
61356;SDS011;47227;46.752;23.576;2023-03-14T13:52:22;1.80;;;1.40;;
61356;SDS011;47227;46.752;23.576;2023-03-14T13:55:28;2.90;;;1.50;;
61356;SDS011;47227;46.752;23.576;2023-03-14T13:58:03;4.00;;;1.40;;
61356;SDS011;47227;46.752;23.576;2023-03-14T14:00:32;2.90;;;1.30;;
61356;SDS011;47227;46.752;23.576;2023-03-14T14:03:08;2.30;;;1.60;;
61356;SDS011;47227;46.752;23.576;2023-03-14T14:05:47;4.10;;;1.70;;
61356;SDS011;47227;46.752;23.576;2023-03-14T14:08:20;3.40;;;1.60;;
61356;SDS011;47227;46.752;23.576;2023-03-14T14:10:59;2.00;;;1.40;;
61356;SDS011;47227;46.752;23.576;2023-03-14T14:13:51;4.80;;;2.10;;
61356;SDS011;47227;46.752;23.576;2023-03-14T14:16:25;3.80;;;1.70;;
61356;SDS011;47227;46.752;23.576;2023-03-14T14:19:01;2.20;;;1.70;;
61356;SDS011;47227;46.752;23.576;2023-03-14T14:21:38;3.10;;;1.70;;
61356;SDS011;47227;46.752;23.576;2023-03-14T14:24:08;4.20;;;2.40;;
61356;SDS011;47227;46.752;23.576;2023-03-14T14:29:36;7.30;;;2.60;;
61356;SDS011;47227;46.752;23.576;2023-03-14T14:32:11;6.80;;;2.80;;
61356;SDS011;47227;46.752;23.576;2023-03-14T14:34:46;2.20;;;1.90;;
61356;SDS011;47227;46.752;23.576;2023-03-14T14:37:48;4.30;;;2.40;;
61356;SDS011;47227;46.752;23.576;2023-03-14T14:40:27;2.50;;;2.20;;
61356;SDS011;47227;46.752;23.576;2023-03-14T14:43:02;2.60;;;1.60;;
61356;SDS011;47227;46.752;23.576;2023-03-14T14:45:37;3.30;;;2.10;;
61356;SDS011;47227;46.752;23.576;2023-03-14T14:48:08;3.40;;;1.60;;
61356;SDS011;47227;46.752;23.576;2023-03-14T14:53:40;4.20;;;1.70;;
61356;SDS011;47227;46.752;23.576;2023-03-14T14:56:16;3.90;;;2.40;;
61356;SDS011;47227;46.752;23.576;2023-03-14T14:58:46;5.10;;;2.00;;
61356;SDS011;47227;46.752;23.576;2023-03-14T15:09:41;2.60;;;2.10;;
61356;SDS011;47227;46.752;23.576;2023-03-14T15:12:12;3.60;;;2.10;;
61356;SDS011;47227;46.752;23.576;2023-03-14T15:14:49;4.60;;;2.20;;
61356;SDS011;47227;46.752;23.576;2023-03-14T15:17:26;3.60;;;1.90;;
61356;SDS011;47227;46.752;23.576;2023-03-14T15:19:55;8.80;;;2.00;;
61356;SDS011;47227;46.752;23.576;2023-03-14T15:22:25;6.80;;;2.70;;
61356;SDS011;47227;46.752;23.576;2023-03-14T15:24:56;3.10;;;2.40;;
61356;SDS011;47227;46.752;23.576;2023-03-14T15:27:25;4.80;;;2.50;;
61356;SDS011;47227;46.752;23.576;2023-03-14T15:29:53;5.00;;;3.50;;
61356;SDS011;47227;46.752;23.576;2023-03-14T15:32:52;9.00;;;4.00;;
61356;SDS011;47227;46.752;23.576;2023-03-14T15:35:27;6.20;;;3.20;;
61356;SDS011;47227;46.752;23.576;2023-03-14T15:38:14;4.40;;;3.50;;
61356;SDS011;47227;46.752;23.576;2023-03-14T15:40:52;3.20;;;2.80;;
61356;SDS011;47227;46.752;23.576;2023-03-14T15:43:58;13.00;;;3.50;;
61356;SDS011;47227;46.752;23.576;2023-03-14T15:46:26;7.00;;;3.40;;
61356;SDS011;47227;46.752;23.576;2023-03-14T15:48:58;6.90;;;3.80;;
61356;SDS011;47227;46.752;23.576;2023-03-14T15:51:26;5.20;;;3.50;;
61356;SDS011;47227;46.752;23.576;2023-03-14T15:53:57;6.30;;;3.60;;
61356;SDS011;47227;46.752;23.576;2023-03-14T15:56:27;6.00;;;3.50;;
61356;SDS011;47227;46.752;23.576;2023-03-14T15:58:59;4.90;;;3.50;;
61356;SDS011;47227;46.752;23.576;2023-03-14T16:01:30;10.10;;;3.90;;
61356;SDS011;47227;46.752;23.576;2023-03-14T16:03:58;12.00;;;4.40;;
61356;SDS011;47227;46.752;23.576;2023-03-14T16:06:26;5.50;;;3.10;;
61356;SDS011;47227;46.752;23.576;2023-03-14T16:09:01;4.80;;;3.50;;
61356;SDS011;47227;46.752;23.576;2023-03-14T16:11:50;7.20;;;3.70;;
61356;SDS011;47227;46.752;23.576;2023-03-14T16:14:20;4.30;;;3.90;;
61356;SDS011;47227;46.752;23.576;2023-03-14T16:16:48;5.20;;;3.50;;
61356;SDS011;47227;46.752;23.576;2023-03-14T16:19:23;5.90;;;3.60;;
61356;SDS011;47227;46.752;23.576;2023-03-14T16:21:59;5.00;;;3.60;;
61356;SDS011;47227;46.752;23.576;2023-03-14T16:24:30;4.50;;;3.20;;
61356;SDS011;47227;46.752;23.576;2023-03-14T16:26:58;6.70;;;3.40;;
61356;SDS011;47227;46.752;23.576;2023-03-14T16:29:27;6.20;;;3.40;;
61356;SDS011;47227;46.752;23.576;2023-03-14T16:31:57;5.80;;;3.60;;
61356;SDS011;47227;46.752;23.576;2023-03-14T16:34:25;5.40;;;3.90;;
61356;SDS011;47227;46.752;23.576;2023-03-14T16:36:54;6.10;;;3.70;;
61356;SDS011;47227;46.752;23.576;2023-03-14T16:39:23;8.40;;;3.70;;
61356;SDS011;47227;46.752;23.576;2023-03-14T16:41:52;5.40;;;3.90;;
61356;SDS011;47227;46.752;23.576;2023-03-14T16:44:31;5.10;;;3.10;;
61356;SDS011;47227;46.752;23.576;2023-03-14T16:47:15;6.40;;;3.50;;
61356;SDS011;47227;46.752;23.576;2023-03-14T16:49:53;5.00;;;3.40;;
61356;SDS011;47227;46.752;23.576;2023-03-14T16:55:50;3.80;;;3.00;;
61356;SDS011;47227;46.752;23.576;2023-03-14T16:58:18;6.40;;;2.90;;
61356;SDS011;47227;46.752;23.576;2023-03-14T17:00:51;3.90;;;3.00;;
61356;SDS011;47227;46.752;23.576;2023-03-14T17:03:20;4.30;;;2.30;;
61356;SDS011;47227;46.752;23.576;2023-03-14T17:05:49;4.00;;;2.60;;
61356;SDS011;47227;46.752;23.576;2023-03-14T17:08:19;4.20;;;3.10;;
61356;SDS011;47227;46.752;23.576;2023-03-14T17:10:48;7.40;;;3.30;;
61356;SDS011;47227;46.752;23.576;2023-03-14T17:13:16;5.40;;;3.10;;
61356;SDS011;47227;46.752;23.576;2023-03-14T17:15:45;5.30;;;3.40;;
61356;SDS011;47227;46.752;23.576;2023-03-14T17:18:13;4.30;;;3.10;;
61356;SDS011;47227;46.752;23.576;2023-03-14T17:20:41;4.40;;;2.70;;
61356;SDS011;47227;46.752;23.576;2023-03-14T17:23:09;4.90;;;3.20;;
61356;SDS011;47227;46.752;23.576;2023-03-14T17:25:37;5.90;;;3.30;;
61356;SDS011;47227;46.752;23.576;2023-03-14T17:28:06;4.90;;;3.10;;
61356;SDS011;47227;46.752;23.576;2023-03-14T17:30:36;4.60;;;2.80;;
61356;SDS011;47227;46.752;23.576;2023-03-14T17:33:04;5.10;;;3.60;;
61356;SDS011;47227;46.752;23.576;2023-03-14T17:35:33;4.60;;;3.40;;
61356;SDS011;47227;46.752;23.576;2023-03-14T17:38:01;5.60;;;3.40;;
61356;SDS011;47227;46.752;23.576;2023-03-14T17:40:31;5.00;;;3.30;;
61356;SDS011;47227;46.752;23.576;2023-03-14T17:42:59;4.90;;;3.30;;
61356;SDS011;47227;46.752;23.576;2023-03-14T17:45:27;6.40;;;3.50;;
61356;SDS011;47227;46.752;23.576;2023-03-14T17:47:59;5.80;;;3.30;;
61356;SDS011;47227;46.752;23.576;2023-03-14T17:50:27;5.50;;;3.50;;
61356;SDS011;47227;46.752;23.576;2023-03-14T17:52:55;5.90;;;3.50;;
61356;SDS011;47227;46.752;23.576;2023-03-14T17:55:23;5.80;;;3.50;;
61356;SDS011;47227;46.752;23.576;2023-03-14T17:57:55;3.90;;;3.50;;
61356;SDS011;47227;46.752;23.576;2023-03-14T18:00:23;4.40;;;3.30;;
61356;SDS011;47227;46.752;23.576;2023-03-14T18:02:51;6.80;;;3.20;;
61356;SDS011;47227;46.752;23.576;2023-03-14T18:05:19;6.20;;;3.50;;
61356;SDS011;47227;46.752;23.576;2023-03-14T18:07:47;5.70;;;3.60;;
61356;SDS011;47227;46.752;23.576;2023-03-14T18:10:15;4.90;;;3.60;;
61356;SDS011;47227;46.752;23.576;2023-03-14T18:12:44;10.90;;;3.90;;
61356;SDS011;47227;46.752;23.576;2023-03-14T18:15:12;8.30;;;5.10;;
61356;SDS011;47227;46.752;23.576;2023-03-14T18:17:40;12.30;;;6.40;;
61356;SDS011;47227;46.752;23.576;2023-03-14T18:20:09;10.60;;;5.10;;
61356;SDS011;47227;46.752;23.576;2023-03-14T18:22:40;8.00;;;4.30;;
61356;SDS011;47227;46.752;23.576;2023-03-14T18:25:11;7.40;;;4.30;;
61356;SDS011;47227;46.752;23.576;2023-03-14T18:27:39;8.70;;;4.30;;
61356;SDS011;47227;46.752;23.576;2023-03-14T18:30:07;11.70;;;4.40;;
61356;SDS011;47227;46.752;23.576;2023-03-14T18:32:36;6.20;;;3.70;;
61356;SDS011;47227;46.752;23.576;2023-03-14T18:35:04;7.20;;;3.40;;
61356;SDS011;47227;46.752;23.576;2023-03-14T18:38:34;6.10;;;3.40;;
61356;SDS011;47227;46.752;23.576;2023-03-14T18:42:18;5.40;;;3.10;;
61356;SDS011;47227;46.752;23.576;2023-03-14T18:45:51;5.10;;;3.40;;
61356;SDS011;47227;46.752;23.576;2023-03-14T18:49:23;4.80;;;3.80;;
61356;SDS011;47227;46.752;23.576;2023-03-14T18:52:55;4.90;;;3.00;;
61356;SDS011;47227;46.752;23.576;2023-03-14T18:56:44;4.40;;;2.90;;
61356;SDS011;47227;46.752;23.576;2023-03-14T19:00:16;4.30;;;3.30;;
61356;SDS011;47227;46.752;23.576;2023-03-14T19:04:10;9.30;;;3.80;;
61356;SDS011;47227;46.752;23.576;2023-03-14T19:08:04;5.40;;;3.60;;
61356;SDS011;47227;46.752;23.576;2023-03-14T19:11:32;6.90;;;3.70;;
61356;SDS011;47227;46.752;23.576;2023-03-14T19:18:49;9.80;;;5.30;;
61356;SDS011;47227;46.752;23.576;2023-03-14T19:22:50;8.50;;;5.90;;
61356;SDS011;47227;46.752;23.576;2023-03-14T19:26:38;6.70;;;4.80;;
61356;SDS011;47227;46.752;23.576;2023-03-14T19:30:23;9.30;;;5.60;;
61356;SDS011;47227;46.752;23.576;2023-03-14T19:34:08;15.10;;;7.50;;
61356;SDS011;47227;46.752;23.576;2023-03-14T19:38:10;14.30;;;7.10;;